sensor_id;sensor_type;location;lat;lon;timestamp;pressure;altitude;pressure_sealevel;temperature;humidity
43420;BME280;29017;51.514;-0.178;2024-03-17T00:00:26;101455.81;;;12.40;97.96
43420;BME280;29017;51.514;-0.178;2024-03-17T00:02:55;101455.69;;;12.42;97.80
43420;BME280;29017;51.514;-0.178;2024-03-17T00:05:21;101453.41;;;12.47;98.22
43420;BME280;29017;51.514;-0.178;2024-03-17T00:07:47;101459.53;;;12.48;98.26
43420;BME280;29017;51.514;-0.178;2024-03-17T00:10:13;101456.75;;;12.49;97.81
43420;BME280;29017;51.514;-0.178;2024-03-17T00:12:40;101450.19;;;12.53;97.93
43420;BME280;29017;51.514;-0.178;2024-03-17T00:15:06;101448.53;;;12.52;97.61
43420;BME280;29017;51.514;-0.178;2024-03-17T00:17:32;101433.38;;;12.54;98.16
43420;BME280;29017;51.514;-0.178;2024-03-17T00:19:59;101430.56;;;12.56;97.92
43420;BME280;29017;51.514;-0.178;2024-03-17T00:22:27;101414.59;;;12.57;98.01
43420;BME280;29017;51.514;-0.178;2024-03-17T00:24:53;101406.34;;;12.60;98.48
43420;BME280;29017;51.514;-0.178;2024-03-17T00:27:18;101398.97;;;12.64;99.18
43420;BME280;29017;51.514;-0.178;2024-03-17T00:29:44;101397.81;;;12.66;99.48
43420;BME280;29017;51.514;-0.178;2024-03-17T00:32:10;101404.25;;;12.64;99.09
43420;BME280;29017;51.514;-0.178;2024-03-17T00:34:37;101402.59;;;12.63;98.86
43420;BME280;29017;51.514;-0.178;2024-03-17T00:37:03;101402.59;;;12.63;98.92
43420;BME280;29017;51.514;-0.178;2024-03-17T00:39:28;101401.63;;;12.64;99.21
43420;BME280;29017;51.514;-0.178;2024-03-17T00:41:57;101391.88;;;12.64;99.13
43420;BME280;29017;51.514;-0.178;2024-03-17T00:44:22;101387.25;;;12.66;98.83
43420;BME280;29017;51.514;-0.178;2024-03-17T00:46:48;101369.94;;;12.64;98.96
43420;BME280;29017;51.514;-0.178;2024-03-17T00:49:14;101370.75;;;12.64;99.29
43420;BME280;29017;51.514;-0.178;2024-03-17T00:51:39;101367.91;;;12.58;99.19
43420;BME280;29017;51.514;-0.178;2024-03-17T00:54:05;101369.69;;;12.57;99.33
43420;BME280;29017;51.514;-0.178;2024-03-17T00:56:31;101375.69;;;12.59;99.32
43420;BME280;29017;51.514;-0.178;2024-03-17T00:58:56;101368.88;;;12.57;99.44
43420;BME280;29017;51.514;-0.178;2024-03-17T01:01:22;101376.47;;;12.60;99.68
43420;BME280;29017;51.514;-0.178;2024-03-17T01:03:57;101372.19;;;12.59;99.62
43420;BME280;29017;51.514;-0.178;2024-03-17T01:06:23;101380.63;;;12.62;99.52
43420;BME280;29017;51.514;-0.178;2024-03-17T01:08:48;101380.31;;;12.65;99.57
43420;BME280;29017;51.514;-0.178;2024-03-17T01:11:15;101375.34;;;12.62;99.41
43420;BME280;29017;51.514;-0.178;2024-03-17T01:13:47;101368.28;;;12.63;99.63
43420;BME280;29017;51.514;-0.178;2024-03-17T01:16:13;101371.19;;;12.60;99.35
43420;BME280;29017;51.514;-0.178;2024-03-17T01:18:39;101373.84;;;12.60;99.38
43420;BME280;29017;51.514;-0.178;2024-03-17T01:21:05;101367.28;;;12.64;99.89
43420;BME280;29017;51.514;-0.178;2024-03-17T01:23:31;101362.53;;;12.67;100.00
43420;BME280;29017;51.514;-0.178;2024-03-17T01:25:56;101363.03;;;12.71;100.00
43420;BME280;29017;51.514;-0.178;2024-03-17T01:28:22;101351.34;;;12.73;99.93
43420;BME280;29017;51.514;-0.178;2024-03-17T01:30:48;101356.31;;;12.76;100.00
43420;BME280;29017;51.514;-0.178;2024-03-17T01:33:13;101352.69;;;12.77;100.00
43420;BME280;29017;51.514;-0.178;2024-03-17T01:35:39;101340.84;;;12.81;100.00
43420;BME280;29017;51.514;-0.178;2024-03-17T01:38:04;101326.16;;;12.79;100.00
43420;BME280;29017;51.514;-0.178;2024-03-17T01:40:30;101336.53;;;12.80;100.00
43420;BME280;29017;51.514;-0.178;2024-03-17T01:42:56;101323.50;;;12.79;100.00
43420;BME280;29017;51.514;-0.178;2024-03-17T01:45:25;101316.41;;;12.79;100.00
43420;BME280;29017;51.514;-0.178;2024-03-17T01:47:52;101311.78;;;12.81;100.00
43420;BME280;29017;51.514;-0.178;2024-03-17T01:50:18;101324.84;;;12.83;100.00
43420;BME280;29017;51.514;-0.178;2024-03-17T01:52:56;101320.41;;;12.83;100.00
43420;BME280;29017;51.514;-0.178;2024-03-17T01:55:25;101315.13;;;12.83;100.00
43420;BME280;29017;51.514;-0.178;2024-03-17T01:57:51;101313.81;;;12.88;100.00
43420;BME280;29017;51.514;-0.178;2024-03-17T02:00:17;101313.81;;;12.88;100.00
43420;BME280;29017;51.514;-0.178;2024-03-17T02:02:42;101307.69;;;12.87;100.00
43420;BME280;29017;51.514;-0.178;2024-03-17T02:05:09;101311.84;;;12.90;100.00
43420;BME280;29017;51.514;-0.178;2024-03-17T02:07:35;101312.97;;;12.87;100.00
43420;BME280;29017;51.514;-0.178;2024-03-17T02:10:01;101307.56;;;12.89;100.00
43420;BME280;29017;51.514;-0.178;2024-03-17T02:12:29;101303.94;;;12.90;100.00
43420;BME280;29017;51.514;-0.178;2024-03-17T02:14:56;101298.34;;;12.93;100.00
43420;BME280;29017;51.514;-0.178;2024-03-17T02:17:22;101291.25;;;12.93;100.00
43420;BME280;29017;51.514;-0.178;2024-03-17T02:19:51;101291.91;;;12.95;100.00
43420;BME280;29017;51.514;-0.178;2024-03-17T02:22:16;101288.44;;;12.95;100.00
43420;BME280;29017;51.514;-0.178;2024-03-17T02:24:45;101283.81;;;12.97;100.00
43420;BME280;29017;51.514;-0.178;2024-03-17T02:27:10;101274.09;;;12.97;100.00
43420;BME280;29017;51.514;-0.178;2024-03-17T02:29:36;101280.34;;;12.96;100.00
43420;BME280;29017;51.514;-0.178;2024-03-17T02:32:02;101273.09;;;12.98;100.00
43420;BME280;29017;51.514;-0.178;2024-03-17T02:34:35;101265.53;;;13.03;100.00
43420;BME280;29017;51.514;-0.178;2024-03-17T02:37:01;101257.09;;;13.00;100.00
43420;BME280;29017;51.514;-0.178;2024-03-17T02:39:28;101257.94;;;13.00;100.00
43420;BME280;29017;51.514;-0.178;2024-03-17T02:41:57;101258.75;;;13.01;100.00
43420;BME280;29017;51.514;-0.178;2024-03-17T02:44:22;101252.47;;;13.02;100.00
43420;BME280;29017;51.514;-0.178;2024-03-17T02:46:48;101253.63;;;12.99;100.00
43420;BME280;29017;51.514;-0.178;2024-03-17T02:49:13;101252.47;;;13.02;100.00
43420;BME280;29017;51.514;-0.178;2024-03-17T02:51:39;101246.91;;;13.05;100.00
43420;BME280;29017;51.514;-0.178;2024-03-17T02:54:05;101247.72;;;13.05;100.00
43420;BME280;29017;51.514;-0.178;2024-03-17T02:56:31;101241.25;;;13.00;100.00
43420;BME280;29017;51.514;-0.178;2024-03-17T02:58:57;101248.16;;;13.01;100.00
43420;BME280;29017;51.514;-0.178;2024-03-17T03:01:22;101240.94;;;13.03;100.00
43420;BME280;29017;51.514;-0.178;2024-03-17T03:03:48;101246.22;;;13.03;100.00
43420;BME280;29017;51.514;-0.178;2024-03-17T03:06:15;101250.03;;;13.08;100.00
43420;BME280;29017;51.514;-0.178;2024-03-17T03:08:41;101241.44;;;13.06;100.00
43420;BME280;29017;51.514;-0.178;2024-03-17T03:11:07;101239.63;;;13.07;100.00
43420;BME280;29017;51.514;-0.178;2024-03-17T03:13:36;101240.16;;;13.10;100.00
43420;BME280;29017;51.514;-0.178;2024-03-17T03:16:03;101240.84;;;13.12;100.00
43420;BME280;29017;51.514;-0.178;2024-03-17T03:18:28;101237.22;;;13.13;100.00
43420;BME280;29017;51.514;-0.178;2024-03-17T03:20:54;101242.34;;;13.15;100.00
43420;BME280;29017;51.514;-0.178;2024-03-17T03:23:20;101234.41;;;13.15;100.00
43420;BME280;29017;51.514;-0.178;2024-03-17T03:25:45;101234.09;;;13.18;100.00
43420;BME280;29017;51.514;-0.178;2024-03-17T03:28:13;101229.78;;;13.17;100.00
43420;BME280;29017;51.514;-0.178;2024-03-17T03:30:38;101232.97;;;13.20;100.00
43420;BME280;29017;51.514;-0.178;2024-03-17T03:33:04;101229.31;;;13.21;100.00
43420;BME280;29017;51.514;-0.178;2024-03-17T03:35:30;101223.88;;;13.23;100.00
43420;BME280;29017;51.514;-0.178;2024-03-17T03:37:56;101213.44;;;13.21;100.00
43420;BME280;29017;51.514;-0.178;2024-03-17T03:40:22;101219.41;;;13.23;100.00
43420;BME280;29017;51.514;-0.178;2024-03-17T03:42:47;101218.56;;;13.23;100.00
43420;BME280;29017;51.514;-0.178;2024-03-17T03:45:13;101208.34;;;13.20;100.00
43420;BME280;29017;51.514;-0.178;2024-03-17T03:47:39;101207.50;;;13.19;100.00
43420;BME280;29017;51.514;-0.178;2024-03-17T03:50:09;101205.69;;;13.20;100.00
43420;BME280;29017;51.514;-0.178;2024-03-17T03:52:35;101203.22;;;13.18;100.00
43420;BME280;29017;51.514;-0.178;2024-03-17T03:55:01;101194.44;;;13.18;100.00
43420;BME280;29017;51.514;-0.178;2024-03-17T03:57:26;101196.94;;;13.19;100.00
43420;BME280;29017;51.514;-0.178;2024-03-17T03:59:55;101198.13;;;13.25;100.00
43420;BME280;29017;51.514;-0.178;2024-03-17T04:02:20;101196.31;;;13.25;100.00
43420;BME280;29017;51.514;-0.178;2024-03-17T04:04:46;101186.53;;;13.26;100.00
43420;BME280;29017;51.514;-0.178;2024-03-17T04:07:13;101185.72;;;13.25;100.00
43420;BME280;29017;51.514;-0.178;2024-03-17T04:09:39;101180.44;;;13.25;100.00
43420;BME280;29017;51.514;-0.178;2024-03-17T04:12:04;101175.81;;;13.27;100.00
43420;BME280;29017;51.514;-0.178;2024-03-17T04:14:30;101169.53;;;13.28;100.00
43420;BME280;29017;51.514;-0.178;2024-03-17T04:16:56;101168.56;;;13.30;100.00
43420;BME280;29017;51.514;-0.178;2024-03-17T04:19:22;101165.91;;;13.30;100.00
43420;BME280;29017;51.514;-0.178;2024-03-17T04:21:47;101157.00;;;13.31;100.00
43420;BME280;29017;51.514;-0.178;2024-03-17T04:24:13;101156.31;;;13.28;100.00
43420;BME280;29017;51.514;-0.178;2024-03-17T04:26:38;101159.97;;;13.27;100.00
43420;BME280;29017;51.514;-0.178;2024-03-17T04:29:04;101158.28;;;13.26;100.00
43420;BME280;29017;51.514;-0.178;2024-03-17T04:31:31;101161.28;;;13.23;100.00
43420;BME280;29017;51.514;-0.178;2024-03-17T04:33:56;101155.84;;;13.25;100.00
43420;BME280;29017;51.514;-0.178;2024-03-17T04:36:22;101143.75;;;13.22;100.00
43420;BME280;29017;51.514;-0.178;2024-03-17T04:38:48;101155.84;;;13.25;100.00
43420;BME280;29017;51.514;-0.178;2024-03-17T04:41:17;101148.75;;;13.25;100.00
43420;BME280;29017;51.514;-0.178;2024-03-17T04:43:43;101142.94;;;13.22;100.00
43420;BME280;29017;51.514;-0.178;2024-03-17T04:46:08;101141.28;;;13.21;100.00
43420;BME280;29017;51.514;-0.178;2024-03-17T04:48:37;101141.13;;;13.22;100.00
43420;BME280;29017;51.514;-0.178;2024-03-17T04:51:03;101133.03;;;13.24;100.00
43420;BME280;29017;51.514;-0.178;2024-03-17T04:53:29;101131.88;;;13.26;100.00
43420;BME280;29017;51.514;-0.178;2024-03-17T04:56:00;101130.72;;;13.29;100.00
43420;BME280;29017;51.514;-0.178;2024-03-17T04:58:25;101131.38;;;13.31;100.00
43420;BME280;29017;51.514;-0.178;2024-03-17T05:00:51;101133.53;;;13.27;100.00
43420;BME280;29017;51.514;-0.178;2024-03-17T05:03:17;101132.41;;;13.30;100.00
43420;BME280;29017;51.514;-0.178;2024-03-17T05:05:42;101145.09;;;13.26;100.00
43420;BME280;29017;51.514;-0.178;2024-03-17T05:08:08;101136.16;;;13.27;100.00
43420;BME280;29017;51.514;-0.178;2024-03-17T05:10:33;101142.97;;;13.30;100.00
43420;BME280;29017;51.514;-0.178;2024-03-17T05:12:59;101133.22;;;13.31;100.00
43420;BME280;29017;51.514;-0.178;2024-03-17T05:15:25;101129.91;;;13.28;100.00
43420;BME280;29017;51.514;-0.178;2024-03-17T05:17:51;101130.56;;;13.31;100.00
43420;BME280;29017;51.514;-0.178;2024-03-17T05:20:17;101129.91;;;13.28;100.00
43420;BME280;29017;51.514;-0.178;2024-03-17T05:22:43;101128.09;;;13.29;100.00
43420;BME280;29017;51.514;-0.178;2024-03-17T05:25:11;101121.00;;;13.30;100.00
43420;BME280;29017;51.514;-0.178;2024-03-17T05:27:38;101124.28;;;13.32;100.00
43420;BME280;29017;51.514;-0.178;2024-03-17T05:30:04;101126.78;;;13.33;100.00
43420;BME280;29017;51.514;-0.178;2024-03-17T05:32:29;101120.50;;;13.34;100.00
43420;BME280;29017;51.514;-0.178;2024-03-17T05:34:55;101124.94;;;13.34;100.00
43420;BME280;29017;51.514;-0.178;2024-03-17T05:37:21;101128.44;;;13.34;100.00
43420;BME280;29017;51.514;-0.178;2024-03-17T05:39:47;101127.44;;;13.35;100.00
43420;BME280;29017;51.514;-0.178;2024-03-17T05:42:12;101130.91;;;13.36;100.00
43420;BME280;29017;51.514;-0.178;2024-03-17T05:44:38;101130.72;;;13.37;100.00
43420;BME280;29017;51.514;-0.178;2024-03-17T05:47:18;101129.59;;;13.40;100.00
43420;BME280;29017;51.514;-0.178;2024-03-17T05:49:44;101128.75;;;13.39;100.00
43420;BME280;29017;51.514;-0.178;2024-03-17T05:52:10;101132.22;;;13.40;100.00
43420;BME280;29017;51.514;-0.178;2024-03-17T05:54:35;101130.41;;;13.40;100.00
43420;BME280;29017;51.514;-0.178;2024-03-17T05:57:03;101136.34;;;13.42;100.00
43420;BME280;29017;51.514;-0.178;2024-03-17T05:59:30;101135.38;;;13.43;100.00
43420;BME280;29017;51.514;-0.178;2024-03-17T06:01:56;101140.81;;;13.42;100.00
43420;BME280;29017;51.514;-0.178;2024-03-17T06:04:22;101131.91;;;13.43;100.00
43420;BME280;29017;51.514;-0.178;2024-03-17T06:06:48;101128.28;;;13.44;100.00
43420;BME280;29017;51.514;-0.178;2024-03-17T06:09:14;101127.28;;;13.45;100.00
43420;BME280;29017;51.514;-0.178;2024-03-17T06:11:43;101128.13;;;13.45;100.00
43420;BME280;29017;51.514;-0.178;2024-03-17T06:14:08;101133.22;;;13.47;100.00
43420;BME280;29017;51.514;-0.178;2024-03-17T06:16:37;101127.63;;;13.50;100.00
43420;BME280;29017;51.514;-0.178;2024-03-17T06:19:02;101129.09;;;13.52;100.00
43420;BME280;29017;51.514;-0.178;2024-03-17T06:21:28;101122.63;;;13.47;100.00
43420;BME280;29017;51.514;-0.178;2024-03-17T06:23:54;101121.66;;;13.48;100.00
43420;BME280;29017;51.514;-0.178;2024-03-17T06:26:19;101130.25;;;13.50;100.00
43420;BME280;29017;51.514;-0.178;2024-03-17T06:28:46;101123.47;;;13.47;100.00
43420;BME280;29017;51.514;-0.178;2024-03-17T06:31:12;101127.94;;;13.47;100.00
43420;BME280;29017;51.514;-0.178;2024-03-17T06:33:37;101116.38;;;13.48;100.00
43420;BME280;29017;51.514;-0.178;2024-03-17T06:36:03;101125.97;;;13.49;100.00
43420;BME280;29017;51.514;-0.178;2024-03-17T06:38:30;101128.44;;;13.50;100.00
43420;BME280;29017;51.514;-0.178;2024-03-17T06:40:55;101125.81;;;13.50;100.00
43420;BME280;29017;51.514;-0.178;2024-03-17T06:43:21;101122.16;;;13.51;100.00
43420;BME280;29017;51.514;-0.178;2024-03-17T06:45:54;101116.06;;;13.51;100.00
43420;BME280;29017;51.514;-0.178;2024-03-17T06:48:20;101120.66;;;13.49;100.00
43420;BME280;29017;51.514;-0.178;2024-03-17T06:50:46;101114.72;;;13.47;100.00
43420;BME280;29017;51.514;-0.178;2024-03-17T06:53:12;101109.59;;;13.45;100.00
43420;BME280;29017;51.514;-0.178;2024-03-17T06:55:38;101112.25;;;13.45;100.00
43420;BME280;29017;51.514;-0.178;2024-03-17T06:58:03;101108.78;;;13.45;100.00
43420;BME280;29017;51.514;-0.178;2024-03-17T07:00:29;101107.78;;;13.46;100.00
43420;BME280;29017;51.514;-0.178;2024-03-17T07:02:58;101109.44;;;13.47;100.00
43420;BME280;29017;51.514;-0.178;2024-03-17T07:05:33;101106.78;;;13.47;100.00
43420;BME280;29017;51.514;-0.178;2024-03-17T07:07:59;101111.09;;;13.48;100.00
43420;BME280;29017;51.514;-0.178;2024-03-17T07:10:24;101101.00;;;13.51;100.00
43420;BME280;29017;51.514;-0.178;2024-03-17T07:12:52;101103.31;;;13.54;100.00
43420;BME280;29017;51.514;-0.178;2024-03-17T07:15:17;101094.56;;;13.54;100.00
43420;BME280;29017;51.514;-0.178;2024-03-17T07:17:43;101102.34;;;13.55;100.00
43420;BME280;29017;51.514;-0.178;2024-03-17T07:20:09;101098.03;;;13.54;100.00
43420;BME280;29017;51.514;-0.178;2024-03-17T07:22:38;101094.72;;;13.52;100.00
43420;BME280;29017;51.514;-0.178;2024-03-17T07:25:03;101094.72;;;13.52;100.00
43420;BME280;29017;51.514;-0.178;2024-03-17T07:27:29;101103.47;;;13.53;100.00
43420;BME280;29017;51.514;-0.178;2024-03-17T07:29:55;101099.03;;;13.53;100.00
43420;BME280;29017;51.514;-0.178;2024-03-17T07:32:20;101091.44;;;13.58;100.00
43420;BME280;29017;51.514;-0.178;2024-03-17T07:34:48;101092.09;;;13.60;100.00
43420;BME280;29017;51.514;-0.178;2024-03-17T07:37:15;101087.63;;;13.61;100.00
43420;BME280;29017;51.514;-0.178;2024-03-17T07:39:41;101096.22;;;13.63;100.00
43420;BME280;29017;51.514;-0.178;2024-03-17T07:42:06;101088.94;;;13.65;100.00
43420;BME280;29017;51.514;-0.178;2024-03-17T07:44:32;101086.78;;;13.68;100.00
43420;BME280;29017;51.514;-0.178;2024-03-17T07:47:01;101088.28;;;13.71;100.00
43420;BME280;29017;51.514;-0.178;2024-03-17T07:49:29;101084.31;;;13.75;100.00
43420;BME280;29017;51.514;-0.178;2024-03-17T07:51:55;101087.44;;;13.79;100.00
43420;BME280;29017;51.514;-0.178;2024-03-17T07:54:23;101087.28;;;13.80;100.00
43420;BME280;29017;51.514;-0.178;2024-03-17T07:56:49;101082.00;;;13.80;100.00
43420;BME280;29017;51.514;-0.178;2024-03-17T07:59:14;101076.34;;;13.83;100.00
43420;BME280;29017;51.514;-0.178;2024-03-17T08:01:43;101079.66;;;13.85;100.00
43420;BME280;29017;51.514;-0.178;2024-03-17T08:04:09;101073.88;;;13.90;100.00
43420;BME280;29017;51.514;-0.178;2024-03-17T08:06:40;101073.03;;;13.89;100.00
43420;BME280;29017;51.514;-0.178;2024-03-17T08:09:07;101070.41;;;13.89;100.00
43420;BME280;29017;51.514;-0.178;2024-03-17T08:11:33;101062.13;;;13.92;100.00
43420;BME280;29017;51.514;-0.178;2024-03-17T08:13:59;101061.63;;;13.89;100.00
43420;BME280;29017;51.514;-0.178;2024-03-17T08:16:27;101060.97;;;13.95;100.00
43420;BME280;29017;51.514;-0.178;2024-03-17T08:18:53;101053.50;;;13.98;100.00
43420;BME280;29017;51.514;-0.178;2024-03-17T08:21:19;101059.47;;;14.00;100.00
43420;BME280;29017;51.514;-0.178;2024-03-17T08:23:44;101055.84;;;14.01;100.00
43420;BME280;29017;51.514;-0.178;2024-03-17T08:26:12;101049.38;;;14.04;100.00
43420;BME280;29017;51.514;-0.178;2024-03-17T08:28:38;101054.97;;;14.09;100.00
43420;BME280;29017;51.514;-0.178;2024-03-17T08:31:04;101056.28;;;14.13;100.00
43420;BME280;29017;51.514;-0.178;2024-03-17T08:33:30;101041.69;;;14.17;100.00
43420;BME280;29017;51.514;-0.178;2024-03-17T08:35:56;101043.72;;;14.15;100.00
43420;BME280;29017;51.514;-0.178;2024-03-17T08:38:22;101048.84;;;14.17;100.00
43420;BME280;29017;51.514;-0.178;2024-03-17T08:40:51;101047.50;;;14.21;100.00
43420;BME280;29017;51.514;-0.178;2024-03-17T08:43:17;101047.16;;;14.24;100.00
43420;BME280;29017;51.514;-0.178;2024-03-17T08:45:42;101049.78;;;14.24;100.00
43420;BME280;29017;51.514;-0.178;2024-03-17T08:48:08;101042.84;;;14.23;100.00
43420;BME280;29017;51.514;-0.178;2024-03-17T08:50:35;101039.56;;;14.21;100.00
43420;BME280;29017;51.514;-0.178;2024-03-17T08:53:02;101040.56;;;14.20;100.00
43420;BME280;29017;51.514;-0.178;2024-03-17T08:55:27;101042.22;;;14.21;100.00
43420;BME280;29017;51.514;-0.178;2024-03-17T08:57:53;101039.41;;;14.14;100.00
43420;BME280;29017;51.514;-0.178;2024-03-17T09:00:18;101034.13;;;14.14;100.00
43420;BME280;29017;51.514;-0.178;2024-03-17T09:02:44;101036.59;;;14.16;100.00
43420;BME280;29017;51.514;-0.178;2024-03-17T09:05:09;101035.78;;;14.15;100.00
43420;BME280;29017;51.514;-0.178;2024-03-17T09:07:35;101029.50;;;14.16;100.00
43420;BME280;29017;51.514;-0.178;2024-03-17T09:10:01;101036.09;;;14.20;100.00
43420;BME280;29017;51.514;-0.178;2024-03-17T09:12:26;101031.44;;;14.22;100.00
43420;BME280;29017;51.514;-0.178;2024-03-17T09:14:53;101029.81;;;14.21;100.00
43420;BME280;29017;51.514;-0.178;2024-03-17T09:17:18;101021.88;;;14.21;100.00
43420;BME280;29017;51.514;-0.178;2024-03-17T09:19:46;101022.38;;;14.17;100.00
43420;BME280;29017;51.514;-0.178;2024-03-17T09:22:13;101030.13;;;14.18;100.00
43420;BME280;29017;51.514;-0.178;2024-03-17T09:24:38;101019.22;;;14.21;100.00
43420;BME280;29017;51.514;-0.178;2024-03-17T09:27:04;101022.34;;;14.25;100.00
43420;BME280;29017;51.514;-0.178;2024-03-17T09:29:30;101020.84;;;14.22;100.00
43420;BME280;29017;51.514;-0.178;2024-03-17T09:31:56;101008.44;;;14.23;100.00
43420;BME280;29017;51.514;-0.178;2024-03-17T09:34:21;101022.19;;;14.18;100.00
43420;BME280;29017;51.514;-0.178;2024-03-17T09:36:47;101013.63;;;14.16;100.00
43420;BME280;29017;51.514;-0.178;2024-03-17T09:39:12;101019.91;;;14.15;100.00
43420;BME280;29017;51.514;-0.178;2024-03-17T09:41:40;101013.78;;;14.14;100.00
43420;BME280;29017;51.514;-0.178;2024-03-17T09:44:11;101012.94;;;14.14;100.00
43420;BME280;29017;51.514;-0.178;2024-03-17T09:46:38;101011.13;;;14.14;100.00
43420;BME280;29017;51.514;-0.178;2024-03-17T09:49:04;101015.75;;;14.21;100.00
43420;BME280;29017;51.514;-0.178;2024-03-17T09:51:30;101006.16;;;14.20;100.00
43420;BME280;29017;51.514;-0.178;2024-03-17T09:53:57;101002.66;;;14.19;100.00
43420;BME280;29017;51.514;-0.178;2024-03-17T09:56:23;101003.50;;;14.20;100.00
43420;BME280;29017;51.514;-0.178;2024-03-17T09:58:51;101007.81;;;14.21;100.00
43420;BME280;29017;51.514;-0.178;2024-03-17T10:01:17;100993.28;;;14.17;100.00
43420;BME280;29017;51.514;-0.178;2024-03-17T10:03:50;100999.56;;;14.16;100.00
43420;BME280;29017;51.514;-0.178;2024-03-17T10:06:29;101000.03;;;14.19;100.00
43420;BME280;29017;51.514;-0.178;2024-03-17T10:08:55;100997.03;;;14.22;100.00
43420;BME280;29017;51.514;-0.178;2024-03-17T10:11:24;101000.34;;;14.24;100.00
43420;BME280;29017;51.514;-0.178;2024-03-17T10:16:26;100995.34;;;14.29;100.00
43420;BME280;29017;51.514;-0.178;2024-03-17T10:19:13;100986.25;;;14.32;100.00
43420;BME280;29017;51.514;-0.178;2024-03-17T10:21:40;100979.63;;;14.28;100.00
43420;BME280;29017;51.514;-0.178;2024-03-17T10:29:05;100973.00;;;14.40;100.00
43420;BME280;29017;51.514;-0.178;2024-03-17T10:31:31;100977.53;;;14.54;100.00
43420;BME280;29017;51.514;-0.178;2024-03-17T10:34:02;100973.50;;;14.66;100.00
43420;BME280;29017;51.514;-0.178;2024-03-17T10:36:29;100966.69;;;14.72;100.00
43420;BME280;29017;51.514;-0.178;2024-03-17T10:38:57;100979.72;;;14.73;100.00
43420;BME280;29017;51.514;-0.178;2024-03-17T10:41:23;100978.72;;;14.74;100.00
43420;BME280;29017;51.514;-0.178;2024-03-17T10:43:51;100973.72;;;14.79;100.00
43420;BME280;29017;51.514;-0.178;2024-03-17T10:46:16;100972.72;;;14.80;100.00
43420;BME280;29017;51.514;-0.178;2024-03-17T10:48:42;100976.66;;;14.84;100.00
43420;BME280;29017;51.514;-0.178;2024-03-17T10:51:12;100965.91;;;14.86;100.00
43420;BME280;29017;51.514;-0.178;2024-03-17T10:53:42;100970.00;;;14.88;100.00
43420;BME280;29017;51.514;-0.178;2024-03-17T10:56:11;100962.34;;;14.93;100.00
43420;BME280;29017;51.514;-0.178;2024-03-17T10:58:40;100951.53;;;15.03;100.00
43420;BME280;29017;51.514;-0.178;2024-03-17T11:01:14;100950.72;;;15.03;100.00
43420;BME280;29017;51.514;-0.178;2024-03-17T11:03:39;100949.50;;;15.05;100.00
43420;BME280;29017;51.514;-0.178;2024-03-17T11:06:06;100953.00;;;15.06;100.00
43420;BME280;29017;51.514;-0.178;2024-03-17T11:08:33;100957.50;;;15.20;100.00
43420;BME280;29017;51.514;-0.178;2024-03-17T11:11:00;100965.19;;;15.29;100.00
43420;BME280;29017;51.514;-0.178;2024-03-17T11:13:26;100980.03;;;15.38;100.00
43420;BME280;29017;51.514;-0.178;2024-03-17T11:15:53;100976.19;;;15.41;100.00
43420;BME280;29017;51.514;-0.178;2024-03-17T11:23:28;100974.75;;;15.38;100.00
43420;BME280;29017;51.514;-0.178;2024-03-17T11:25:54;100968.78;;;15.36;100.00
43420;BME280;29017;51.514;-0.178;2024-03-17T11:31:05;100976.72;;;15.36;100.00
43420;BME280;29017;51.514;-0.178;2024-03-17T11:46:54;100966.00;;;15.67;100.00
43420;BME280;29017;51.514;-0.178;2024-03-17T11:49:27;100967.38;;;15.78;100.00
43420;BME280;29017;51.514;-0.178;2024-03-17T11:51:53;100953.13;;;15.79;100.00
43420;BME280;29017;51.514;-0.178;2024-03-17T11:54:23;100957.34;;;15.73;100.00
43420;BME280;29017;51.514;-0.178;2024-03-17T11:56:51;100949.00;;;15.76;100.00
43420;BME280;29017;51.514;-0.178;2024-03-17T11:59:17;100955.94;;;15.77;100.00
43420;BME280;29017;51.514;-0.178;2024-03-17T12:01:44;100948.00;;;15.77;100.00
43420;BME280;29017;51.514;-0.178;2024-03-17T12:04:11;100954.22;;;15.85;100.00
43420;BME280;29017;51.514;-0.178;2024-03-17T12:06:37;100958.44;;;15.79;100.00
43420;BME280;29017;51.514;-0.178;2024-03-17T12:11:38;100944.41;;;15.70;100.00
43420;BME280;29017;51.514;-0.178;2024-03-17T12:14:12;100949.38;;;15.73;100.00
43420;BME280;29017;51.514;-0.178;2024-03-17T12:16:47;100949.00;;;15.76;100.00
43420;BME280;29017;51.514;-0.178;2024-03-17T12:19:15;100948.38;;;15.74;100.00
43420;BME280;29017;51.514;-0.178;2024-03-17T12:21:44;100950.66;;;15.77;100.00
43420;BME280;29017;51.514;-0.178;2024-03-17T12:24:18;100946.34;;;15.76;100.00
43420;BME280;29017;51.514;-0.178;2024-03-17T12:26:45;100945.88;;;15.73;100.00
43420;BME280;29017;51.514;-0.178;2024-03-17T12:32:16;100940.75;;;15.71;100.00
43420;BME280;29017;51.514;-0.178;2024-03-17T12:34:42;100937.47;;;15.69;100.00
43420;BME280;29017;51.514;-0.178;2024-03-17T12:37:42;100935.84;;;15.68;100.00
43420;BME280;29017;51.514;-0.178;2024-03-17T12:40:01;100936.72;;;15.75;100.00
43420;BME280;29017;51.514;-0.178;2024-03-17T12:42:27;100932.91;;;15.78;100.00
43420;BME280;29017;51.514;-0.178;2024-03-17T12:44:54;100935.38;;;15.79;100.00
43420;BME280;29017;51.514;-0.178;2024-03-17T12:47:20;100943.13;;;15.81;100.00
43420;BME280;29017;51.514;-0.178;2024-03-17T12:49:55;100929.88;;;15.81;100.00
43420;BME280;29017;51.514;-0.178;2024-03-17T12:52:25;100931.97;;;15.86;100.00
43420;BME280;29017;51.514;-0.178;2024-03-17T12:55:07;100931.34;;;15.83;100.00
43420;BME280;29017;51.514;-0.178;2024-03-17T12:57:52;100934.88;;;15.91;100.00
43420;BME280;29017;51.514;-0.178;2024-03-17T13:03:30;100921.41;;;16.07;100.00
43420;BME280;29017;51.514;-0.178;2024-03-17T13:05:57;100916.81;;;16.15;99.93